Time;durP1;ratioP1;P1;durP2;ratioP2;P2;SDS_P1;SDS_P2;PMS_P1;PMS_P2;Temp;Humidity;BMP_temperature;BMP_pressure;BME280_temperature;BME280_humidity;BME280_pressure;Samples;Min_cycle;Max_cycle;Signal;HPM_P1;HPM_P2
2022/06/17 00:01:49;;;;;;;2.53;2.13;;;;;;;18.92;50.22;98778.84;5052991;28;20219;-68
2022/06/17 00:04:15;;;;;;;3.03;2.10;;;;;;;18.87;50.47;98786.47;5053106;28;20222;-68
2022/06/17 00:06:44;;;;;;;2.50;2.30;;;;;;;18.81;50.83;98800.44;5052704;28;20692;-69
2022/06/17 00:09:16;;;;;;;2.27;2.03;;;;;;;18.73;51.47;98785.09;5051566;28;20306;-68
2022/06/17 00:11:43;;;;;;;2.80;1.93;;;;;;;18.71;51.27;98788.88;5052966;28;20226;-68
2022/06/17 00:14:13;;;;;;;3.40;2.77;;;;;;;18.58;51.87;98791.81;5052568;28;20212;-68
2022/06/17 00:16:39;;;;;;;3.13;2.40;;;;;;;18.49;52.47;98798.03;5052664;28;20222;-68
2022/06/17 00:19:06;;;;;;;2.33;2.10;;;;;;;18.45;52.68;98796.59;5052992;28;20208;-68
2022/06/17 00:21:35;;;;;;;2.60;2.10;;;;;;;18.41;52.87;98794.34;5052886;28;20218;-68
2022/06/17 00:24:11;;;;;;;2.50;2.23;;;;;;;18.37;53.14;98792.94;5052733;28;20236;-68
2022/06/17 00:26:39;;;;;;;2.43;2.07;;;;;;;18.30;53.67;98797.94;5051434;28;20215;-68
2022/06/17 00:29:06;;;;;;;2.00;1.90;;;;;;;18.25;54.19;98800.22;5052747;28;20636;-68
2022/06/17 00:31:32;;;;;;;2.70;2.13;;;;;;;18.23;54.54;98791.44;5052741;28;20212;-68
2022/06/17 00:33:59;;;;;;;2.83;2.13;;;;;;;18.15;54.90;98793.97;5052608;28;20217;-69
2022/06/17 00:36:25;;;;;;;2.60;2.40;;;;;;;18.16;54.74;98787.63;5051166;28;20223;-69
2022/06/17 00:38:52;;;;;;;2.97;2.40;;;;;;;18.11;54.75;98800.56;5052948;28;20242;-68
2022/06/17 00:41:25;;;;;;;2.83;2.23;;;;;;;18.03;55.27;98802.22;5052795;28;20261;-68
2022/06/17 00:43:53;;;;;;;3.20;2.17;;;;;;;17.99;55.70;98807.00;5052595;28;20236;-68
2022/06/17 00:46:29;;;;;;;3.53;2.33;;;;;;;17.93;56.15;98804.88;5052587;28;20212;-68
2022/06/17 00:49:04;;;;;;;5.97;2.40;;;;;;;17.86;56.59;98808.25;5056567;28;20221;-68
2022/06/17 00:51:36;;;;;;;2.63;2.43;;;;;;;17.78;57.08;98808.06;5056525;28;20215;-68
2022/06/17 00:54:08;;;;;;;2.50;2.30;;;;;;;17.70;57.79;98808.75;5056407;28;20216;-68
2022/06/17 00:56:37;;;;;;;2.23;2.03;;;;;;;17.74;57.68;98815.50;5056725;28;20242;-68
2022/06/17 00:59:07;;;;;;;2.53;2.33;;;;;;;17.66;57.91;98820.69;5056434;28;20585;-68
2022/06/17 01:01:43;;;;;;;2.90;2.37;;;;;;;17.59;58.70;98811.50;5053860;28;20221;-68
2022/06/17 01:04:11;;;;;;;2.33;2.13;;;;;;;17.41;59.83;98814.91;5055883;28;20700;-68
2022/06/17 01:06:47;;;;;;;2.40;2.20;;;;;;;17.29;60.51;98808.75;5055969;28;20216;-68
2022/06/17 01:12:03;;;;;;;2.30;2.10;;;;;;;17.12;61.48;98812.03;5055952;28;20273;-69
2022/06/17 01:14:32;;;;;;;2.50;2.30;;;;;;;17.18;60.64;98810.66;5056008;28;20212;-68
2022/06/17 01:17:00;;;;;;;2.30;2.10;;;;;;;17.18;61.04;98806.16;5055957;28;20216;-68
2022/06/17 01:19:31;;;;;;;2.30;2.10;;;;;;;17.12;61.69;98801.34;5056001;28;20223;-69
2022/06/17 01:22:09;;;;;;;2.20;2.03;;;;;;;17.07;62.10;98798.19;5055935;28;20269;-68
2022/06/17 01:24:38;;;;;;;3.33;2.67;;;;;;;17.04;62.94;98795.81;5055790;28;20220;-69
2022/06/17 01:27:05;;;;;;;2.37;2.20;;;;;;;17.02;63.13;98797.72;5055564;28;20216;-69
2022/06/17 01:29:33;;;;;;;2.50;2.20;;;;;;;16.99;63.09;98795.34;5054483;28;20670;-68
2022/06/17 01:32:00;;;;;;;2.57;2.10;;;;;;;16.96;63.07;98795.59;5055718;28;20212;-68
2022/06/17 01:34:26;;;;;;;2.50;2.30;;;;;;;16.96;63.34;98792.09;5055509;28;20224;-69
2022/06/17 01:36:54;;;;;;;2.40;2.20;;;;;;;16.92;63.84;98788.81;5055637;28;20221;-68
2022/06/17 01:39:21;;;;;;;3.60;2.20;;;;;;;16.87;64.39;98796.38;5055670;28;20220;-68
2022/06/17 01:41:51;;;;;;;2.40;2.20;;;;;;;16.84;64.31;98802.00;5055344;28;20208;-68
2022/06/17 01:44:20;;;;;;;2.47;2.10;;;;;;;16.80;64.44;98795.19;5055197;28;20244;-69
2022/06/17 01:46:51;;;;;;;2.27;2.07;;;;;;;16.78;64.77;98791.81;5055482;28;20227;-68
2022/06/17 01:49:22;;;;;;;2.63;2.40;;;;;;;16.76;64.78;98799.09;5055137;28;20226;-68
2022/06/17 01:51:52;;;;;;;2.40;2.20;;;;;;;16.75;64.80;98791.19;5055175;28;20212;-68
2022/06/17 01:54:23;;;;;;;3.77;2.20;;;;;;;16.75;64.92;98792.06;5053716;28;20212;-68
2022/06/17 01:56:55;;;;;;;2.33;2.13;;;;;;;16.73;65.04;98799.38;5055317;28;20219;-68
2022/06/17 01:59:28;;;;;;;4.77;2.47;;;;;;;16.65;65.72;98798.31;5053655;28;20303;-69
2022/06/17 02:01:59;;;;;;;2.40;2.20;;;;;;;16.63;65.58;98803.75;5055056;28;20273;-68
2022/06/17 02:04:31;;;;;;;4.30;2.10;;;;;;;16.65;65.79;98801.81;5055061;28;20240;-68
2022/06/17 02:07:04;;;;;;;3.33;2.33;;;;;;;16.65;65.92;98799.13;5055100;28;20216;-68
2022/06/17 02:09:30;;;;;;;2.63;2.43;;;;;;;16.66;65.89;98792.84;5055112;28;20216;-69
2022/06/17 02:11:59;;;;;;;2.97;2.60;;;;;;;16.59;66.12;98791.63;5054841;28;20223;-68
2022/06/17 02:14:26;;;;;;;3.30;2.50;;;;;;;16.59;65.78;98786.28;5055015;28;20218;-68
2022/06/17 02:16:55;;;;;;;3.47;2.17;;;;;;;16.55;66.13;98784.00;5054695;28;20223;-68
2022/06/17 02:19:25;;;;;;;2.50;2.30;;;;;;;16.53;66.54;98776.13;5053319;28;20208;-69
2022/06/17 02:21:57;;;;;;;2.40;2.00;;;;;;;16.50;67.00;98775.53;5054538;28;20208;-69
2022/06/17 02:24:25;;;;;;;2.80;2.47;;;;;;;16.45;66.76;98772.44;5054761;28;20580;-69
2022/06/17 02:26:53;;;;;;;3.87;2.70;;;;;;;16.44;67.34;98773.38;5054786;28;20212;-69
2022/06/17 02:29:22;;;;;;;3.33;2.40;;;;;;;16.37;67.52;98774.81;5054582;28;20304;-69
2022/06/17 02:31:49;;;;;;;2.50;2.30;;;;;;;16.29;68.19;98777.28;5054249;28;20216;-68
2022/06/17 02:34:19;;;;;;;2.47;2.27;;;;;;;16.28;67.88;98780.94;5054314;28;20216;-68
2022/06/17 02:36:49;;;;;;;2.23;2.03;;;;;;;16.24;68.14;98788.34;5038693;28;20216;-68
2022/06/17 02:39:16;;;;;;;2.57;2.27;;;;;;;16.22;68.11;98790.28;5054323;28;20243;-69
2022/06/17 02:41:45;;;;;;;2.60;2.30;;;;;;;16.17;68.67;98787.16;5054497;28;20216;-68
2022/06/17 02:44:20;;;;;;;3.37;2.20;;;;;;;16.15;69.08;98789.06;5054414;28;20236;-68
2022/06/17 02:46:52;;;;;;;2.50;2.30;;;;;;;16.13;69.39;98781.34;5052758;28;20208;-69
2022/06/17 02:49:22;;;;;;;2.50;2.30;;;;;;;16.08;69.73;98779.88;5054091;28;20214;-69
2022/06/17 02:51:49;;;;;;;2.50;2.30;;;;;;;16.04;69.72;98783.75;5054428;28;20211;-68
2022/06/17 02:54:19;;;;;;;2.43;2.20;;;;;;;16.03;69.78;98782.06;5054270;28;20218;-68
2022/06/17 02:56:51;;;;;;;3.47;2.40;;;;;;;16.00;69.81;98785.97;5053782;28;20691;-68
2022/06/17 02:59:25;;;;;;;2.40;2.20;;;;;;;15.95;70.10;98782.81;5053750;28;20212;-68
2022/06/17 03:01:55;;;;;;;2.80;2.60;;;;;;;15.90;70.69;98780.53;5054006;28;20555;-69
2022/06/17 03:04:26;;;;;;;2.50;2.30;;;;;;;15.88;70.66;98792.28;5053969;28;20259;-68
2022/06/17 03:06:52;;;;;;;2.30;2.10;;;;;;;15.86;70.72;98795.06;5054059;28;20216;-69
2022/06/17 03:09:22;;;;;;;2.87;2.10;;;;;;;15.87;71.02;98794.09;5053858;28;20216;-68
2022/06/17 03:11:52;;;;;;;2.97;2.17;;;;;;;15.88;70.38;98795.78;5052177;28;20212;-68
2022/06/17 03:14:20;;;;;;;2.90;2.70;;;;;;;15.85;70.50;98803.19;5053938;28;20208;-68
2022/06/17 03:16:51;;;;;;;4.43;2.40;;;;;;;15.84;70.30;98802.34;5053657;28;20214;-68
2022/06/17 03:19:19;;;;;;;2.50;2.30;;;;;;;15.84;70.43;98801.50;5053594;28;20220;-69
2022/06/17 03:21:46;;;;;;;2.27;2.00;;;;;;;15.85;70.47;98809.38;5053639;28;20212;-69
2022/06/17 03:24:20;;;;;;;2.80;2.57;;;;;;;15.86;70.03;98815.53;5053703;28;20240;-69
2022/06/17 03:26:53;;;;;;;2.60;2.40;;;;;;;15.85;70.01;98814.72;5053361;28;20215;-68
2022/06/17 03:29:22;;;;;;;3.87;2.50;;;;;;;15.87;69.81;98811.91;5053368;28;20219;-69
2022/06/17 03:31:55;;;;;;;2.47;2.20;;;;;;;15.88;69.80;98808.28;5037049;28;20216;-69
2022/06/17 03:34:28;;;;;;;3.00;2.30;;;;;;;15.88;69.88;98810.94;5053250;28;20212;-68
2022/06/17 03:37:01;;;;;;;3.10;2.43;;;;;;;15.86;69.97;98820.88;5053139;28;20223;-69
2022/06/17 03:39:35;;;;;;;3.00;2.70;;;;;;;15.92;70.23;98826.56;5051993;28;20239;-68
2022/06/17 03:42:06;;;;;;;3.50;2.53;;;;;;;15.93;70.43;98819.41;5053344;28;20218;-69
2022/06/17 03:44:37;;;;;;;3.93;2.33;;;;;;;15.98;70.04;98810.09;5053293;28;20235;-68
2022/06/17 03:47:07;;;;;;;3.30;2.60;;;;;;;16.08;69.62;98817.22;5053173;28;20218;-69
2022/06/17 03:49:40;;;;;;;3.40;2.50;;;;;;;16.17;68.81;98829.84;5037463;28;20231;-69
2022/06/17 03:52:15;;;;;;;2.33;2.13;;;;;;;16.24;68.46;98831.03;5053183;28;20216;-68
2022/06/17 03:54:41;;;;;;;2.40;2.20;;;;;;;16.33;68.11;98826.75;5053242;28;20249;-69
2022/06/17 03:57:10;;;;;;;2.37;2.17;;;;;;;16.34;67.78;98823.94;5053104;28;20212;-69
2022/06/17 03:59:41;;;;;;;4.23;2.60;;;;;;;16.37;67.85;98834.38;5053098;28;20216;-68
2022/06/17 04:02:10;;;;;;;2.50;2.30;;;;;;;16.38;68.28;98830.78;5053095;28;20208;-68
2022/06/17 04:04:41;;;;;;;2.67;2.33;;;;;;;16.43;67.91;98839.25;5050941;28;20728;-69
2022/06/17 04:07:11;;;;;;;2.70;2.47;;;;;;;16.47;67.88;98840.69;5052603;28;20222;-68
2022/06/17 04:09:39;;;;;;;2.83;1.97;;;;;;;16.50;67.78;98845.78;5052955;28;20216;-68
2022/06/17 04:12:19;;;;;;;3.20;2.20;;;;;;;16.46;69.10;98852.34;5052803;28;20224;-68
2022/06/17 04:14:49;;;;;;;2.70;2.30;;;;;;;16.43;70.68;98849.94;5052794;28;20291;-68
2022/06/17 04:17:20;;;;;;;3.07;2.40;;;;;;;16.41;71.38;98849.19;5052846;28;20223;-68
2022/06/17 04:19:54;;;;;;;2.77;2.30;;;;;;;16.38;70.92;98857.44;5052673;28;20229;-68
2022/06/17 04:22:25;;;;;;;2.50;2.30;;;;;;;16.34;72.35;98868.47;5054473;28;20219;-69
2022/06/17 04:24:56;;;;;;;3.50;2.30;;;;;;;16.32;74.06;98871.25;5056807;28;20286;-69
2022/06/17 04:27:23;;;;;;;2.77;2.57;;;;;;;16.29;74.25;98868.84;5056970;28;20218;-69
2022/06/17 04:29:54;;;;;;;3.03;2.70;;;;;;;16.27;73.15;98870.78;5055161;28;20228;-69
2022/06/17 04:32:25;;;;;;;3.43;2.60;;;;;;;16.21;73.23;98865.09;5056687;28;20219;-69
2022/06/17 04:34:53;;;;;;;4.57;2.50;;;;;;;16.20;73.60;98880.25;5056906;28;20220;-69
2022/06/17 04:37:22;;;;;;;3.37;2.70;;;;;;;16.26;73.69;98873.56;5056388;28;20705;-69
2022/06/17 04:39:53;;;;;;;2.50;2.30;;;;;;;16.29;74.00;98868.84;5056287;28;20692;-69
2022/06/17 04:42:23;;;;;;;2.97;2.77;;;;;;;16.34;74.34;98879.97;5056339;28;20212;-68
2022/06/17 04:44:51;;;;;;;2.87;2.43;;;;;;;16.43;74.14;98879.28;5056683;28;20235;-69
2022/06/17 04:47:20;;;;;;;3.57;2.60;;;;;;;16.54;73.64;98873.94;5056805;28;20320;-68
2022/06/17 04:49:50;;;;;;;2.93;2.43;;;;;;;16.64;73.40;98874.84;5056337;28;20212;-69
2022/06/17 04:52:26;;;;;;;3.97;2.60;;;;;;;16.75;72.76;98882.84;5056308;28;20223;-68
2022/06/17 04:54:56;;;;;;;2.70;2.50;;;;;;;16.89;72.12;98885.19;5056296;28;20226;-68
2022/06/17 04:57:23;;;;;;;2.30;2.10;;;;;;;17.31;70.30;98891.47;5054652;28;20591;-69
2022/06/17 04:59:50;;;;;;;2.67;2.30;;;;;;;17.81;68.04;98883.50;5056198;28;20219;-69
2022/06/17 05:02:19;;;;;;;2.70;2.50;;;;;;;18.44;65.08;98882.41;5040274;28;20243;-69
2022/06/17 05:04:48;;;;;;;2.53;2.33;;;;;;;19.23;59.84;98885.78;5056310;28;20617;-69
2022/06/17 05:07:15;;;;;;;3.93;2.27;;;;;;;20.19;55.44;98889.13;5056177;28;20216;-68
2022/06/17 05:09:47;;;;;;;3.97;2.50;;;;;;;21.17;53.33;98886.44;5056163;28;20220;-69
2022/06/17 05:12:18;;;;;;;3.93;2.30;;;;;;;22.09;50.34;98883.13;5056155;28;20211;-68
2022/06/17 05:14:51;;;;;;;2.60;2.40;;;;;;;22.91;48.20;98891.41;5055816;28;20594;-69
2022/06/17 05:17:18;;;;;;;3.47;2.23;;;;;;;23.70;46.48;98892.50;5055703;28;20698;-69
2022/06/17 05:19:45;;;;;;;4.50;2.20;;;;;;;24.31;45.12;98890.09;5056087;28;20218;-68
2022/06/17 05:22:16;;;;;;;2.43;2.23;;;;;;;24.77;44.20;98890.09;5054062;28;20223;-68
2022/06/17 05:24:44;;;;;;;2.73;2.30;;;;;;;24.85;43.87;98892.75;5055890;28;20235;-69
2022/06/17 05:27:11;;;;;;;3.13;2.80;;;;;;;25.22;43.11;98900.09;5055981;28;20212;-69
2022/06/17 05:29:37;;;;;;;2.40;2.20;;;;;;;25.44;42.63;98908.28;5055870;28;20218;-69
2022/06/17 05:32:05;;;;;;;2.47;2.23;;;;;;;25.91;41.37;98913.50;5055801;28;20211;-69
2022/06/17 05:34:32;;;;;;;3.07;2.23;;;;;;;26.09;41.13;98906.72;5055642;28;20220;-69
2022/06/17 05:36:58;;;;;;;5.20;2.63;;;;;;;26.25;41.25;98906.56;5055692;28;20239;-69
2022/06/17 05:39:25;;;;;;;2.83;2.60;;;;;;;26.63;40.01;98908.16;5055607;28;20212;-69
2022/06/17 05:41:53;;;;;;;4.23;2.30;;;;;;;27.06;38.91;98901.81;5055546;28;20212;-69
2022/06/17 05:44:19;;;;;;;2.20;2.00;;;;;;;27.10;37.94;98914.81;5055356;28;20236;-69
2022/06/17 05:46:47;;;;;;;2.20;2.00;;;;;;;27.17;37.86;98909.50;5055454;28;20220;-69
2022/06/17 05:49:13;;;;;;;3.13;2.50;;;;;;;27.35;37.78;98918.06;5053727;28;20579;-69
2022/06/17 05:51:40;;;;;;;2.20;2.00;;;;;;;27.25;37.95;98922.13;5055294;28;20215;-69
2022/06/17 05:54:06;;;;;;;3.55;2.38;;;;;;;26.86;38.65;98922.47;5055396;28;20212;-69
2022/06/17 05:56:33;;;;;;;3.20;2.43;;;;;;;26.78;39.73;98933.41;5055379;28;20216;-69
2022/06/17 05:59:01;;;;;;;2.70;2.50;;;;;;;27.16;38.70;98928.69;5054909;28;20673;-69
2022/06/17 06:01:28;;;;;;;2.80;2.60;;;;;;;27.36;38.76;98936.03;5055171;28;20212;-69
2022/06/17 06:03:54;;;;;;;3.07;2.57;;;;;;;27.30;39.47;98939.50;5054747;28;20701;-69
2022/06/17 06:06:21;;;;;;;3.28;2.70;;;;;;;27.43;38.87;98942.38;5054735;28;20705;-68
2022/06/17 06:08:47;;;;;;;4.25;2.95;;;;;;;27.49;38.88;98931.59;5055024;28;20220;-69
2022/06/17 06:11:14;;;;;;;3.13;2.72;;;;;;;27.75;38.95;98939.16;5054967;28;20599;-69
2022/06/17 06:13:41;;;;;;;4.00;3.00;;;;;;;27.92;38.70;98944.16;5053183;28;20216;-68
2022/06/17 06:16:09;;;;;;;3.15;2.70;;;;;;;28.28;38.17;98939.44;5054945;28;20216;-68
2022/06/17 06:18:39;;;;;;;2.70;2.50;;;;;;;28.65;37.50;98927.34;5054862;28;20219;-68
2022/06/17 06:21:06;;;;;;;2.20;2.03;;;;;;;28.95;36.88;98920.63;5055022;28;20247;-68
2022/06/17 06:23:33;;;;;;;4.72;2.67;;;;;;;29.16;36.21;98923.22;5054448;28;20212;-68
2022/06/17 06:26:00;;;;;;;2.65;2.15;;;;;;;28.60;36.93;98914.34;5054656;28;20231;-68
2022/06/17 06:28:28;;;;;;;3.22;2.40;;;;;;;28.40;37.59;98910.69;5054722;28;20223;-68
2022/06/17 06:30:57;;;;;;;2.40;2.20;;;;;;;28.70;37.39;98922.13;5054409;28;20219;-69
2022/06/17 06:33:25;;;;;;;2.67;2.40;;;;;;;28.72;36.79;98911.88;5054264;28;20212;-69
2022/06/17 06:35:52;;;;;;;3.08;2.33;;;;;;;28.20;37.41;98917.81;5054260;28;20212;-68
2022/06/17 06:38:18;;;;;;;3.20;2.20;;;;;;;28.10;38.64;98913.75;5054315;28;20607;-69
2022/06/17 06:40:45;;;;;;;2.77;2.03;;;;;;;28.55;37.35;98919.53;5052804;28;20224;-69
2022/06/17 06:43:14;;;;;;;5.55;2.22;;;;;;;29.06;36.52;98920.03;5054538;28;20220;-69
2022/06/17 06:45:41;;;;;;;2.90;2.08;;;;;;;29.54;34.98;98927.13;5053871;28;20243;-69
2022/06/17 06:48:09;;;;;;;2.70;1.88;;;;;;;29.59;34.71;98919.19;5053924;28;20226;-69
2022/06/17 06:50:39;;;;;;;3.50;1.83;;;;;;;29.34;34.29;98923.50;5054343;28;20255;-69
2022/06/17 06:53:06;;;;;;;1.98;1.88;;;;;;;28.99;34.19;98922.72;5054271;28;20222;-69
2022/06/17 06:55:34;;;;;;;4.05;1.90;;;;;;;28.86;34.75;98927.25;5054165;28;20219;-69
2022/06/17 06:58:04;;;;;;;3.15;2.10;;;;;;;28.89;34.37;98933.13;5053779;28;20216;-69
2022/06/17 07:00:33;;;;;;;2.13;1.92;;;;;;;28.69;34.16;98942.22;5053861;28;20212;-69
2022/06/17 07:03:00;;;;;;;4.32;2.00;;;;;;;28.54;34.58;98930.63;5053840;28;20212;-69
2022/06/17 07:05:27;;;;;;;4.53;2.38;;;;;;;28.25;35.23;98944.44;5052472;28;20243;-69
2022/06/17 07:07:55;;;;;;;2.33;2.10;;;;;;;27.64;35.62;98939.69;5053970;28;20214;-70
2022/06/17 07:10:25;;;;;;;2.78;2.10;;;;;;;26.91;37.52;98947.16;5054054;28;20212;-69
2022/06/17 07:12:52;;;;;;;4.15;2.10;;;;;;;26.39;38.42;98950.97;5053974;28;20286;-69
2022/06/17 07:15:19;;;;;;;4.15;2.40;;;;;;;25.69;39.46;98949.53;5053738;28;20224;-69
2022/06/17 07:17:56;;;;;;;2.10;1.90;;;;;;;24.82;41.59;98954.44;5053742;28;20303;-70
2022/06/17 07:20:24;;;;;;;3.47;2.50;;;;;;;24.13;42.43;98955.13;5053472;28;20687;-69
2022/06/17 07:22:51;;;;;;;3.07;2.23;;;;;;;23.56;43.48;98950.72;5053332;28;20220;-69
2022/06/17 07:25:20;;;;;;;3.83;2.40;;;;;;;23.28;44.91;98957.41;5053634;28;20240;-69
2022/06/17 07:27:47;;;;;;;2.97;2.40;;;;;;;23.29;45.94;98952.88;5053389;28;20682;-69
2022/06/17 07:30:16;;;;;;;3.87;2.27;;;;;;;23.28;46.67;98952.03;5053264;28;20216;-68
2022/06/17 07:32:43;;;;;;;3.40;2.40;;;;;;;23.35;46.19;98950.34;5048390;28;20247;-70
2022/06/17 07:35:10;;;;;;;4.20;2.50;;;;;;;23.40;46.22;98952.56;5052259;28;20220;-70
2022/06/17 07:40:22;;;;;;;3.40;2.63;;;;;;;23.38;45.37;98951.88;5051545;28;20215;-70
2022/06/17 07:42:49;;;;;;;3.13;2.45;;;;;;;23.29;45.45;98947.47;5049782;28;20208;-70
2022/06/17 07:45:19;;;;;;;3.30;2.10;;;;;;;23.36;46.31;98943.94;5048332;28;20240;-69
2022/06/17 07:47:48;;;;;;;2.47;2.27;;;;;;;23.54;45.83;98952.72;5047439;28;20223;-69
2022/06/17 07:50:19;;;;;;;2.63;2.37;;;;;;;23.67;45.22;98955.78;5049273;28;20299;-69
2022/06/17 07:52:46;;;;;;;3.13;2.50;;;;;;;23.78;44.29;98952.72;5046480;28;20220;-69
2022/06/17 07:55:13;;;;;;;2.90;2.20;;;;;;;23.64;43.64;98952.59;5048216;28;20216;-69
2022/06/17 07:57:41;;;;;;;3.37;2.40;;;;;;;23.77;44.48;98951.06;5048062;28;20220;-69
2022/06/17 08:00:11;;;;;;;4.10;2.50;;;;;;;23.89;44.41;98951.59;5047595;28;20281;-69
2022/06/17 08:02:37;;;;;;;2.57;2.37;;;;;;;23.94;44.53;98950.06;5045867;28;20686;-69
2022/06/17 08:05:04;;;;;;;2.50;2.30;;;;;;;23.93;44.74;98951.09;5048132;28;20247;-69
2022/06/17 08:07:31;;;;;;;3.53;2.60;;;;;;;23.91;45.04;98949.56;5048790;28;20216;-69
2022/06/17 08:09:57;;;;;;;4.20;2.60;;;;;;;24.01;45.71;98945.69;5048957;28;20569;-69
2022/06/17 08:12:24;;;;;;;2.67;2.43;;;;;;;24.19;46.57;98943.63;5046220;28;20216;-69
2022/06/17 08:14:56;;;;;;;3.30;2.70;;;;;;;24.26;44.91;98944.63;5047560;28;20222;-70
2022/06/17 08:17:23;;;;;;;3.67;2.23;;;;;;;24.14;44.19;98946.00;5049127;28;20216;-69
2022/06/17 08:19:55;;;;;;;2.93;2.50;;;;;;;23.97;44.42;98955.16;5048586;28;20696;-69
2022/06/17 08:22:24;;;;;;;3.30;2.57;;;;;;;23.92;45.09;98954.81;5045045;28;20224;-69
2022/06/17 08:24:51;;;;;;;3.63;2.57;;;;;;;24.04;45.18;98949.91;5038650;28;20236;-69
2022/06/17 08:27:17;;;;;;;3.00;2.80;;;;;;;24.04;45.24;98945.34;5052727;28;20330;-69
2022/06/17 08:29:44;;;;;;;3.37;2.50;;;;;;;24.08;44.70;98960.19;5052559;28;20218;-69
2022/06/17 08:34:56;;;;;;;3.00;2.70;;;;;;;24.29;45.20;98955.09;5042548;28;20261;-69
2022/06/17 08:37:22;;;;;;;3.53;2.80;;;;;;;24.33;44.30;98951.00;5052855;28;20598;-69
2022/06/17 08:39:50;;;;;;;2.80;2.60;;;;;;;24.29;43.80;98951.53;5052669;28;20215;-70
2022/06/17 08:42:32;;;;;;;2.77;2.40;;;;;;;24.18;44.39;98946.47;5052638;28;20220;-70
2022/06/17 08:45:10;;;;;;;3.10;2.80;;;;;;;24.10;44.74;98939.25;5052336;28;20240;-70
2022/06/17 08:47:50;;;;;;;2.80;2.60;;;;;;;24.19;44.06;98953.59;5052292;28;20211;-69
2022/06/17 08:50:47;;;;;;;3.07;2.77;;;;;;;24.17;43.50;98945.66;5052009;28;20223;-69
2022/06/17 08:53:37;;;;;;;5.07;2.60;;;;;;;24.23;42.98;98944.97;5051665;28;20556;-69
2022/06/17 08:56:10;;;;;;;2.70;2.50;;;;;;;24.33;41.36;98929.41;5050578;28;20581;-70
2022/06/17 08:58:52;;;;;;;2.97;2.67;;;;;;;24.47;42.29;98942.22;5052200;28;20208;-70
2022/06/17 09:01:31;;;;;;;3.63;2.88;;;;;;;24.52;43.74;98939.84;5052436;28;20214;-69
2022/06/17 09:04:20;;;;;;;2.85;2.60;;;;;;;24.56;43.56;98941.16;5052543;28;20216;-69
2022/06/17 09:06:59;;;;;;;3.13;2.50;;;;;;;24.72;43.07;98943.84;5052384;28;20665;-69
2022/06/17 09:09:39;;;;;;;2.97;2.50;;;;;;;24.89;41.39;98948.16;5055375;28;20661;-70
2022/06/17 09:12:15;;;;;;;3.28;2.33;;;;;;;24.86;40.02;98947.69;5044403;28;20211;-69
2022/06/17 09:14:55;;;;;;;2.55;2.00;;;;;;;24.79;39.92;98934.00;5055794;28;20212;-70
2022/06/17 09:17:29;;;;;;;2.58;2.38;;;;;;;24.90;41.27;98933.63;5054308;28;20232;-69
2022/06/17 09:20:01;;;;;;;3.70;2.17;;;;;;;24.98;39.45;98941.69;5043472;28;20682;-70
2022/06/17 09:22:32;;;;;;;2.08;1.80;;;;;;;25.04;38.27;98935.56;5055859;28;20222;-69
2022/06/17 09:25:06;;;;;;;1.77;1.67;;;;;;;25.11;36.14;98941.94;5055564;28;20612;-69
2022/06/17 09:27:35;;;;;;;1.98;1.60;;;;;;;25.08;36.36;98934.22;5055496;28;20262;-69
2022/06/17 09:30:07;;;;;;;2.47;1.52;;;;;;;24.81;35.57;98944.66;5055783;28;20212;-69
2022/06/17 09:32:37;;;;;;;1.70;1.20;;;;;;;24.66;35.55;98946.41;5055610;28;20211;-70
2022/06/17 09:35:13;;;;;;;1.60;1.50;;;;;;;24.69;37.11;98949.59;5055776;28;20234;-69
2022/06/17 09:37:45;;;;;;;1.77;1.50;;;;;;;24.80;36.95;98948.38;5043869;28;20249;-69
2022/06/17 09:40:18;;;;;;;1.75;1.65;;;;;;;24.94;37.33;98947.63;5055213;28;20338;-69
2022/06/17 09:42:50;;;;;;;2.27;1.90;;;;;;;24.97;36.93;98956.25;5054973;28;20281;-70
2022/06/17 09:45:25;;;;;;;2.30;2.10;;;;;;;25.02;36.89;98951.16;5054458;28;20705;-69
2022/06/17 09:48:01;;;;;;;1.98;1.88;;;;;;;24.92;36.64;98946.97;5055440;28;20223;-70
2022/06/17 09:50:33;;;;;;;3.83;2.00;;;;;;;25.08;38.56;98945.03;5051995;28;20219;-70
2022/06/17 09:53:03;;;;;;;2.30;2.10;;;;;;;25.26;38.71;98944.78;5053885;28;20212;-69
2022/06/17 09:55:35;;;;;;;2.57;2.00;;;;;;;25.52;38.56;98946.13;5055318;28;20212;-69
2022/06/17 09:58:08;;;;;;;2.80;1.80;;;;;;;25.54;36.97;98946.78;5055103;28;20216;-69
2022/06/17 10:00:39;;;;;;;2.92;2.58;;;;;;;25.43;37.54;98939.06;5054781;28;20212;-69
2022/06/17 10:03:20;;;;;;;1.70;1.60;;;;;;;25.46;37.77;98936.00;5054902;28;20302;-69
2022/06/17 10:05:57;;;;;;;1.90;1.50;;;;;;;25.44;36.97;98927.25;5055077;28;20236;-69
2022/06/17 10:08:33;;;;;;;2.33;1.58;;;;;;;25.43;35.76;98919.28;5054716;28;20224;-69
2022/06/17 10:11:11;;;;;;;1.63;1.50;;;;;;;25.49;36.74;98924.00;5053450;28;20216;-69
2022/06/17 10:13:45;;;;;;;1.83;1.60;;;;;;;25.72;36.73;98919.41;5054711;28;20215;-69
2022/06/17 10:19:20;;;;;;;2.42;1.60;;;;;;;26.12;36.17;98928.03;5047864;28;20316;-69
2022/06/17 10:22:02;;;;;;;2.85;1.60;;;;;;;26.14;34.54;98925.16;5054325;28;20212;-70
2022/06/17 10:24:41;;;;;;;1.70;1.52;;;;;;;26.19;33.20;98917.28;5051988;28;20216;-70
2022/06/17 10:27:23;;;;;;;2.00;1.80;;;;;;;26.03;35.13;98923.69;5054346;28;20235;-70
2022/06/17 10:30:04;;;;;;;1.63;1.52;;;;;;;25.87;35.03;98918.44;5051609;28;20216;-70
2022/06/17 10:32:34;;;;;;;3.22;1.63;;;;;;;25.84;34.83;98923.38;5054574;28;20231;-70
2022/06/17 10:35:04;;;;;;;1.60;1.50;;;;;;;25.94;34.27;98919.41;5054577;28;20215;-70
2022/06/17 10:37:36;;;;;;;1.70;1.60;;;;;;;25.90;33.45;98918.06;5052540;28;20322;-70
2022/06/17 10:40:05;;;;;;;1.70;1.45;;;;;;;26.07;33.62;98919.63;5054005;28;20216;-70
2022/06/17 10:42:32;;;;;;;2.13;1.90;;;;;;;26.24;35.01;98921.13;5045198;28;20285;-70
2022/06/17 10:45:01;;;;;;;1.85;1.70;;;;;;;26.30;34.88;98914.97;5052695;28;20216;-70
2022/06/17 10:47:39;;;;;;;1.75;1.63;;;;;;;26.45;35.28;98910.38;5052750;28;20274;-70
2022/06/17 10:50:16;;;;;;;1.50;1.40;;;;;;;26.54;34.29;98912.03;5050438;28;20222;-70
2022/06/17 10:52:49;;;;;;;1.83;1.33;;;;;;;26.64;33.21;98912.56;5052994;28;20624;-69
2022/06/17 10:55:19;;;;;;;1.40;1.30;;;;;;;26.75;34.71;98906.66;5052720;28;20669;-70
2022/06/17 10:58:09;;;;;;;1.95;1.63;;;;;;;26.83;31.68;98908.44;5048843;28;20575;-70
2022/06/17 11:00:43;;;;;;;4.43;1.40;;;;;;;26.57;31.65;98906.22;5048007;28;20346;-70
2022/06/17 11:03:24;;;;;;;1.50;1.38;;;;;;;26.58;33.11;98913.31;5046718;28;20727;-70
2022/06/17 11:05:58;;;;;;;1.50;1.40;;;;;;;26.74;34.79;98910.41;5050152;28;20235;-69
2022/06/17 11:08:29;;;;;;;1.67;1.58;;;;;;;26.78;33.66;98914.44;5052294;28;20204;-70
2022/06/17 11:12:02;;;;;;;1.52;1.42;;;;;;;26.77;33.70;98914.63;5052905;28;20242;-71
2022/06/17 11:13:46;;;;;;;1.60;1.38;;;;;;;26.96;33.01;98905.88;5050583;28;20385;-70
2022/06/17 11:16:17;;;;;;;2.45;1.75;;;;;;;27.06;33.89;98904.53;5052464;28;20219;-70
2022/06/17 11:18:49;;;;;;;2.78;1.58;;;;;;;27.04;33.92;98903.91;5052053;28;20208;-70
2022/06/17 11:21:23;;;;;;;2.53;1.80;;;;;;;27.01;34.50;98904.25;5052332;28;20590;-69
2022/06/17 11:23:53;;;;;;;2.65;1.70;;;;;;;27.08;35.35;98907.94;5044646;28;20220;-70
2022/06/17 11:26:24;;;;;;;2.15;1.60;;;;;;;27.10;35.36;98900.41;5052172;28;20250;-70
2022/06/17 11:28:53;;;;;;;1.60;1.50;;;;;;;27.18;34.26;98902.22;5058090;28;20208;-70
2022/06/17 11:31:32;;;;;;;2.05;1.73;;;;;;;27.29;33.56;98902.53;5050392;28;20212;-70
2022/06/17 11:34:01;;;;;;;2.38;1.77;;;;;;;27.02;33.66;98902.41;5046996;28;20216;-70
2022/06/17 11:36:30;;;;;;;1.77;1.67;;;;;;;27.06;34.86;98901.81;5052249;28;20223;-69
2022/06/17 11:39:05;;;;;;;2.50;1.60;;;;;;;27.07;34.46;98891.81;5052143;28;20248;-69
2022/06/17 11:41:34;;;;;;;1.88;1.55;;;;;;;27.00;33.09;98891.72;5044190;28;20207;-68
2022/06/17 11:44:08;;;;;;;3.33;1.60;;;;;;;26.94;32.70;98887.06;5051948;28;20589;-68
2022/06/17 11:46:36;;;;;;;1.52;1.42;;;;;;;26.99;32.97;98890.06;5051469;28;20713;-70
2022/06/17 11:49:09;;;;;;;1.60;1.27;;;;;;;27.22;31.99;98882.63;5051355;28;20216;-70
2022/06/17 11:51:40;;;;;;;2.35;1.48;;;;;;;27.24;33.39;98883.28;5051596;28;20697;-70
2022/06/17 11:54:17;;;;;;;2.35;1.67;;;;;;;27.36;33.59;98875.47;5051579;28;20712;-70
2022/06/17 11:56:46;;;;;;;1.60;1.50;;;;;;;27.56;32.73;98871.88;5049924;28;20220;-70
2022/06/17 11:59:15;;;;;;;2.03;1.70;;;;;;;27.54;33.16;98877.53;5044023;28;20238;-70
2022/06/17 12:01:48;;;;;;;1.55;1.45;;;;;;;27.67;32.18;98884.94;5051574;28;20669;-70